createdAt,value
2023-04-12T00:02:05.020Z,19.98
2023-04-12T00:04:55.738Z,22.25
2023-04-12T00:07:47.081Z,15.60
2023-04-12T00:10:34.713Z,19.30
2023-04-12T00:13:22.099Z,22.60
2023-04-12T00:16:10.868Z,18.25
2023-04-12T00:19:01.857Z,24.00
2023-04-12T00:21:49.699Z,18.40
2023-04-12T00:24:39.634Z,19.38
2023-04-12T00:27:27.076Z,19.02
2023-04-12T00:30:14.751Z,17.77
2023-04-12T00:33:03.692Z,20.80
2023-04-12T00:35:52.742Z,25.25
2023-04-12T00:38:40.152Z,19.27
2023-04-12T00:41:28.243Z,21.40
2023-04-12T00:44:18.314Z,19.63
2023-04-12T00:47:07.028Z,19.48
2023-04-12T00:49:55.345Z,21.05
2023-04-12T00:52:44.909Z,23.00
2023-04-12T00:55:32.513Z,20.30
2023-04-12T00:58:21.564Z,20.15
2023-04-12T01:01:10.682Z,18.38
2023-04-12T01:04:04.828Z,14.32
2023-04-12T01:07:06.621Z,19.25
2023-04-12T01:10:04.031Z,20.75
2023-04-12T01:13:02.351Z,13.52
2023-04-12T01:15:55.150Z,15.50
2023-04-12T01:18:51.338Z,15.65
2023-04-12T01:21:49.480Z,19.23
2023-04-12T01:24:49.004Z,16.75
2023-04-12T01:27:43.446Z,18.40
2023-04-12T01:30:31.280Z,18.17
2023-04-12T01:33:20.033Z,20.58
2023-04-12T01:36:13.012Z,16.85
2023-04-12T01:39:01.577Z,18.52
2023-04-12T01:41:49.483Z,21.75
2023-04-12T01:44:38.195Z,25.73
2023-04-12T01:47:27.264Z,22.60
2023-04-12T01:50:21.681Z,18.83
2023-04-12T01:53:14.122Z,17.20
2023-04-12T01:56:09.459Z,17.58
2023-04-12T01:58:57.430Z,19.95
2023-04-12T02:01:47.856Z,22.02
2023-04-12T02:04:36.747Z,25.50
2023-04-12T02:07:24.537Z,24.88
2023-04-12T02:10:15.430Z,23.95
2023-04-12T02:13:03.370Z,33.67
2023-04-12T02:15:54.502Z,27.20
2023-04-12T02:18:43.827Z,26.15
2023-04-12T02:21:41.299Z,20.50
2023-04-12T02:24:28.696Z,18.08
2023-04-12T02:27:18.929Z,13.35
2023-04-12T02:30:07.736Z,16.27
2023-04-12T02:32:57.973Z,14.82
2023-04-12T02:35:57.192Z,12.32
2023-04-12T02:38:45.940Z,14.57
2023-04-12T02:41:34.469Z,13.15
2023-04-12T02:44:22.135Z,11.95
2023-04-12T02:47:30.271Z,13.48
2023-04-12T02:50:20.767Z,18.63
2023-04-12T02:53:17.525Z,10.27
2023-04-12T02:56:10.982Z,11.18
2023-04-12T02:58:58.413Z,12.68
2023-04-12T03:01:59.606Z,8.60
2023-04-12T03:04:51.969Z,11.02
2023-04-12T03:07:44.252Z,8.70
2023-04-12T03:10:33.661Z,11.10
2023-04-12T03:13:24.533Z,9.38
2023-04-12T03:16:29.725Z,10.95
2023-04-12T03:19:26.941Z,9.75
2023-04-12T03:22:16.096Z,10.13
2023-04-12T03:25:08.786Z,10.13
2023-04-12T03:27:59.244Z,9.73
2023-04-12T03:31:00.724Z,10.60
2023-04-12T03:33:58.311Z,7.93
2023-04-12T03:36:46.570Z,10.77
2023-04-12T03:39:48.841Z,9.45
2023-04-12T03:42:45.526Z,6.72
2023-04-12T03:45:36.843Z,9.35
2023-04-12T03:48:25.385Z,7.57
2023-04-12T03:51:13.276Z,11.20
2023-04-12T03:54:04.894Z,10.38
2023-04-12T03:57:06.887Z,12.15
2023-04-12T04:00:09.783Z,12.10
2023-04-12T04:03:16.362Z,9.25
2023-04-12T04:06:21.354Z,10.05
2023-04-12T04:09:09.295Z,15.48
2023-04-12T04:11:58.812Z,10.07
2023-04-12T04:14:47.535Z,12.82
2023-04-12T04:17:47.486Z,15.00
2023-04-12T04:20:37.410Z,17.50
2023-04-12T04:23:25.123Z,18.45
2023-04-12T04:26:13.981Z,14.38
2023-04-12T04:29:10.063Z,15.32
2023-04-12T04:32:00.154Z,14.43
2023-04-12T04:34:47.911Z,14.50
2023-04-12T04:37:40.837Z,13.25
2023-04-12T04:40:30.340Z,14.65
2023-04-12T04:43:18.777Z,15.15
2023-04-12T04:46:07.772Z,12.98
2023-04-12T04:48:55.527Z,22.83
2023-04-12T04:51:43.283Z,15.90
2023-04-12T04:54:34.250Z,22.00
2023-04-12T04:57:22.479Z,20.85
2023-04-12T05:00:12.401Z,31.90
2023-04-12T05:03:03.228Z,30.10
2023-04-12T05:05:51.112Z,31.17
2023-04-12T05:08:39.168Z,19.13
2023-04-12T05:11:28.362Z,19.17
2023-04-12T05:14:15.675Z,20.42
2023-04-12T05:17:03.208Z,18.50
2023-04-12T05:19:50.704Z,17.73
2023-04-12T05:22:38.719Z,18.77
2023-04-12T05:25:26.479Z,18.40
2023-04-12T05:28:23.975Z,18.63
2023-04-12T05:31:11.867Z,17.52
2023-04-12T05:33:59.911Z,19.23
2023-04-12T05:36:52.537Z,18.92
2023-04-12T05:39:41.101Z,16.50
2023-04-12T05:42:31.254Z,16.42
2023-04-12T05:45:21.126Z,18.67
2023-04-12T05:48:09.329Z,13.32
2023-04-12T05:50:57.106Z,23.70
2023-04-12T05:53:45.000Z,16.30
2023-04-12T05:56:34.214Z,14.57
2023-04-12T05:59:22.425Z,16.58
2023-04-12T06:02:12.296Z,13.80
2023-04-12T06:05:00.840Z,22.27
2023-04-12T06:07:49.390Z,15.13
2023-04-12T06:10:36.912Z,12.48
2023-04-12T06:13:25.365Z,13.15
2023-04-12T06:16:13.741Z,14.05
2023-04-12T06:19:02.802Z,13.32
2023-04-12T06:21:50.650Z,10.52
2023-04-12T06:24:38.942Z,13.25
2023-04-12T06:27:27.507Z,10.75
2023-04-12T06:30:15.577Z,10.88
2023-04-12T06:33:03.389Z,9.77
2023-04-12T06:35:52.397Z,11.68
2023-04-12T06:38:40.586Z,11.55
2023-04-12T06:41:27.921Z,9.40
2023-04-12T06:44:24.375Z,9.25
2023-04-12T06:47:11.916Z,9.43
2023-04-12T06:49:59.707Z,9.63
2023-04-12T06:52:48.947Z,10.48
2023-04-12T06:55:36.787Z,10.13
2023-04-12T06:58:24.505Z,10.18
2023-04-12T07:01:14.652Z,9.20
2023-04-12T07:04:02.423Z,11.38
2023-04-12T07:06:50.097Z,8.45
2023-04-12T07:09:38.879Z,8.02
2023-04-12T07:12:26.452Z,8.85
2023-04-12T07:15:14.111Z,10.75
2023-04-12T07:18:01.938Z,6.82
2023-04-12T07:20:50.343Z,7.10
2023-04-12T07:23:37.714Z,7.68
2023-04-12T07:26:26.480Z,9.13
2023-04-12T07:29:14.043Z,8.82
2023-04-12T07:32:01.517Z,9.05
2023-04-12T07:34:49.266Z,5.95
2023-04-12T07:37:37.137Z,7.45
2023-04-12T07:40:24.753Z,6.72
2023-04-12T07:43:13.573Z,7.53
2023-04-12T07:46:04.602Z,7.18
2023-04-12T07:48:53.068Z,7.97
2023-04-12T07:51:42.147Z,9.55
2023-04-12T07:54:29.676Z,6.45
2023-04-12T07:57:17.702Z,6.72
2023-04-12T08:00:09.588Z,10.38
2023-04-12T08:03:03.120Z,5.65
2023-04-12T08:05:53.806Z,2.92
2023-04-12T08:08:42.172Z,5.05
2023-04-12T08:11:29.713Z,5.60
2023-04-12T08:14:17.143Z,7.18
2023-04-12T08:17:05.868Z,4.45
2023-04-12T08:19:53.485Z,4.93
2023-04-12T08:22:41.167Z,4.93
2023-04-12T08:25:28.716Z,2.83
2023-04-12T08:28:16.903Z,3.97
2023-04-12T08:31:04.552Z,4.13
2023-04-12T08:33:53.762Z,7.60
2023-04-12T08:36:41.337Z,2.90
2023-04-12T08:39:28.740Z,2.95
2023-04-12T08:42:17.260Z,4.47
2023-04-12T08:45:08.876Z,5.53
2023-04-12T08:47:56.741Z,2.75
2023-04-12T08:50:50.501Z,3.00
2023-04-12T08:53:38.031Z,3.95
2023-04-12T08:56:25.473Z,4.78
2023-04-12T08:59:13.678Z,3.35
2023-04-12T09:02:01.260Z,3.20
2023-04-12T09:04:50.403Z,2.72
2023-04-12T09:07:39.294Z,3.40
2023-04-12T09:10:35.159Z,2.10
2023-04-12T09:13:34.190Z,2.40
2023-04-12T09:16:38.637Z,3.47
2023-04-12T09:19:33.328Z,2.92
2023-04-12T09:22:21.071Z,4.43
2023-04-12T09:25:10.760Z,3.60
2023-04-12T09:27:59.305Z,4.28
2023-04-12T09:30:51.768Z,2.45
2023-04-12T09:33:40.548Z,1.80
2023-04-12T09:36:38.989Z,2.25
2023-04-12T09:39:34.389Z,5.07
2023-04-12T09:42:33.279Z,3.35
2023-04-12T09:45:24.430Z,5.47
2023-04-12T09:48:21.878Z,5.95
2023-04-12T09:51:09.371Z,5.57
2023-04-12T09:54:00.722Z,4.43
2023-04-12T09:56:49.534Z,5.75
2023-04-12T09:59:40.309Z,4.60
2023-04-12T10:02:29.420Z,8.13
2023-04-12T10:05:18.843Z,7.07
2023-04-12T10:08:07.104Z,3.10
2023-04-12T10:10:55.235Z,4.80
2023-04-12T10:13:44.402Z,5.45
2023-04-12T10:16:35.420Z,5.05
2023-04-12T10:19:25.400Z,5.53
2023-04-12T10:22:13.874Z,6.28
2023-04-12T10:25:01.553Z,3.95
2023-04-12T10:27:50.045Z,3.65
2023-04-12T10:30:38.133Z,3.05
2023-04-12T10:33:29.259Z,2.13
2023-04-12T10:36:19.243Z,2.78
2023-04-12T10:39:11.341Z,4.75
2023-04-12T10:42:18.940Z,4.03
2023-04-12T10:45:37.412Z,3.65
2023-04-12T10:48:34.320Z,4.53
2023-04-12T10:51:25.734Z,2.95
2023-04-12T10:54:36.324Z,3.03
2023-04-12T10:57:47.282Z,2.65
2023-04-12T11:01:08.834Z,2.67
2023-04-12T11:04:18.443Z,2.15
2023-04-12T11:07:40.614Z,2.17
2023-04-12T11:10:48.477Z,2.05
2023-04-12T11:13:41.446Z,4.47
2023-04-12T11:16:28.876Z,3.22
2023-04-12T11:19:18.824Z,3.60
2023-04-12T11:22:07.460Z,3.38
2023-04-12T11:24:56.695Z,5.60
2023-04-12T11:27:51.446Z,1.77
2023-04-12T11:30:49.497Z,3.53
2023-04-12T11:33:38.093Z,2.63
2023-04-12T11:36:28.116Z,2.72
2023-04-12T11:39:16.779Z,2.95
2023-04-12T11:42:05.018Z,2.30
2023-04-12T11:44:58.955Z,2.63
2023-04-12T11:47:49.784Z,3.75
2023-04-12T11:50:39.623Z,4.05
2023-04-12T11:53:30.557Z,2.13
2023-04-12T11:56:18.130Z,1.90
2023-04-12T11:59:06.077Z,3.83
2023-04-12T12:01:53.628Z,2.78
2023-04-12T12:04:43.602Z,4.75
2023-04-12T12:07:31.697Z,2.22
2023-04-12T12:10:36.607Z,3.28
2023-04-12T12:13:28.929Z,4.75
2023-04-12T12:16:17.587Z,4.03
2023-04-12T12:19:07.407Z,1.50
2023-04-12T12:21:54.902Z,1.55
2023-04-12T12:24:47.791Z,4.22
2023-04-12T12:27:38.549Z,3.17
2023-04-12T12:30:26.658Z,3.80
2023-04-12T12:33:14.264Z,2.58
2023-04-12T12:36:01.717Z,2.33
2023-04-12T12:38:51.522Z,3.03
2023-04-12T12:41:40.260Z,2.67
2023-04-12T12:44:29.443Z,3.65
2023-04-12T12:47:17.266Z,2.33
2023-04-12T12:50:08.271Z,1.52
2023-04-12T12:52:57.231Z,5.25
2023-04-12T12:55:45.063Z,1.92
2023-04-12T12:58:34.430Z,2.20
2023-04-12T13:01:23.118Z,4.13
2023-04-12T13:04:11.271Z,2.53
2023-04-12T13:06:58.861Z,2.67
2023-04-12T13:09:47.036Z,6.80
2023-04-12T13:12:34.875Z,2.13
2023-04-12T13:15:24.618Z,2.55
2023-04-12T13:18:15.429Z,2.25
2023-04-12T13:21:03.302Z,3.00
2023-04-12T13:23:50.819Z,2.97
2023-04-12T13:26:38.212Z,5.95
2023-04-12T13:29:25.908Z,1.85
2023-04-12T13:32:14.285Z,2.15
2023-04-12T13:35:03.180Z,2.58
2023-04-12T13:37:50.970Z,3.55
2023-04-12T13:40:38.551Z,3.45
2023-04-12T13:43:26.038Z,4.30
2023-04-12T13:46:13.757Z,2.58
2023-04-12T13:49:01.233Z,2.40
2023-04-12T13:51:50.409Z,3.00
2023-04-12T13:54:37.941Z,1.27
2023-04-12T13:57:26.781Z,3.22
2023-04-12T14:00:15.662Z,3.33
2023-04-12T14:03:03.758Z,2.00
2023-04-12T14:05:51.840Z,3.58
2023-04-12T14:08:40.639Z,2.55
2023-04-12T14:11:28.186Z,3.30
2023-04-12T14:14:16.786Z,1.92
2023-04-12T14:17:04.752Z,3.17
2023-04-12T14:19:52.612Z,3.92
2023-04-12T14:22:40.490Z,2.55
2023-04-12T14:25:29.715Z,2.95
2023-04-12T14:28:17.738Z,5.57
2023-04-12T14:31:06.571Z,2.17
2023-04-12T14:33:54.860Z,2.88
2023-04-12T14:36:42.123Z,2.28
2023-04-12T14:39:30.904Z,4.18
2023-04-12T14:42:19.915Z,2.20
2023-04-12T14:45:09.533Z,2.05
2023-04-12T14:47:57.675Z,3.33
2023-04-12T14:50:45.229Z,4.80
2023-04-12T14:53:33.201Z,2.53
2023-04-12T14:56:24.237Z,4.78
2023-04-12T14:59:13.567Z,2.42
2023-04-12T15:02:01.528Z,4.10
2023-04-12T15:04:50.439Z,2.65
2023-04-12T15:07:38.638Z,3.28
2023-04-12T15:10:26.783Z,1.33
2023-04-12T15:13:14.374Z,2.40
2023-04-12T15:16:04.016Z,2.45
2023-04-12T15:18:52.439Z,1.73
2023-04-12T15:21:39.788Z,2.60
2023-04-12T15:24:27.625Z,2.05
2023-04-12T15:27:15.145Z,1.92
2023-04-12T15:30:03.320Z,2.22
2023-04-12T15:32:52.479Z,1.55
2023-04-12T15:35:39.871Z,5.07
2023-04-12T15:38:29.114Z,3.55
2023-04-12T15:41:16.655Z,2.90
2023-04-12T15:44:04.283Z,3.10
2023-04-12T15:47:07.469Z,3.42
2023-04-12T15:49:59.032Z,5.90
2023-04-12T15:52:46.481Z,3.58
2023-04-12T15:55:34.056Z,3.92
2023-04-12T15:58:21.939Z,3.35
2023-04-12T16:01:10.593Z,2.70
2023-04-12T16:03:58.310Z,8.05
2023-04-12T16:06:47.494Z,8.18
2023-04-12T16:09:34.980Z,2.42
2023-04-12T16:12:22.594Z,2.75
2023-04-12T16:15:10.929Z,2.70
2023-04-12T16:17:59.089Z,2.28
2023-04-12T16:20:47.100Z,3.65
2023-04-12T16:23:37.880Z,2.15
2023-04-12T16:26:25.660Z,2.85
2023-04-12T16:29:13.670Z,2.38
2023-04-12T16:32:01.331Z,3.15
2023-04-12T16:34:48.944Z,4.95
2023-04-12T16:37:37.725Z,4.22
2023-04-12T16:40:26.821Z,2.80
2023-04-12T16:43:14.417Z,4.07
2023-04-12T16:46:06.022Z,1.75
2023-04-12T16:48:53.600Z,3.70
2023-04-12T16:51:41.260Z,3.67
2023-04-12T16:54:28.742Z,3.42
2023-04-12T16:57:17.792Z,4.95
2023-04-12T17:00:19.582Z,7.38
2023-04-12T17:03:08.567Z,6.30
2023-04-12T17:05:56.119Z,6.72
2023-04-12T17:08:44.128Z,5.45
2023-04-12T17:11:31.592Z,4.22
2023-04-12T17:14:21.146Z,4.00
2023-04-12T17:17:08.646Z,4.30
2023-04-12T17:19:56.066Z,3.25
2023-04-12T17:22:43.672Z,4.70
2023-04-12T17:25:32.744Z,7.38
2023-04-12T17:28:20.277Z,7.20
2023-04-12T17:31:10.310Z,7.05
2023-04-12T17:33:57.777Z,6.72
2023-04-12T17:36:45.487Z,7.40
2023-04-12T17:39:32.992Z,9.05
2023-04-12T17:42:20.986Z,4.97
2023-04-12T17:45:11.176Z,5.45
2023-04-12T17:48:00.225Z,10.60
2023-04-12T17:50:47.796Z,4.47
2023-04-12T17:53:35.276Z,5.18
2023-04-12T17:56:22.522Z,6.25
2023-04-12T17:59:11.440Z,5.60
2023-04-12T18:02:01.226Z,11.15
2023-04-12T18:04:50.208Z,12.35
2023-04-12T18:07:39.831Z,12.13
2023-04-12T18:10:27.651Z,15.55
2023-04-12T18:13:15.291Z,11.02
2023-04-12T18:16:02.880Z,10.63
2023-04-12T18:18:50.574Z,12.88
2023-04-12T18:21:39.390Z,11.20
2023-04-12T18:24:27.593Z,14.23
2023-04-12T18:27:15.057Z,14.25
2023-04-12T18:30:03.397Z,11.63
2023-04-12T18:32:51.171Z,10.55
2023-04-12T18:35:40.082Z,8.63
2023-04-12T18:38:32.449Z,9.55
2023-04-12T18:41:20.041Z,8.38
2023-04-12T18:44:08.994Z,6.43
2023-04-12T18:46:56.390Z,5.47
2023-04-12T18:49:43.816Z,7.20
2023-04-12T18:52:31.367Z,6.97
2023-04-12T18:55:20.565Z,5.95
2023-04-12T18:58:08.256Z,7.60
2023-04-12T19:00:56.393Z,9.07
2023-04-12T19:03:44.531Z,11.00
2023-04-12T19:06:33.116Z,9.13
2023-04-12T19:09:20.604Z,9.35
2023-04-12T19:12:09.831Z,9.38
2023-04-12T19:14:57.343Z,9.10
2023-04-12T19:17:44.856Z,10.82
2023-04-12T19:20:33.493Z,10.68
2023-04-12T19:23:21.621Z,9.88
2023-04-12T19:26:09.250Z,11.43
2023-04-12T19:28:58.949Z,9.63
2023-04-12T19:31:47.549Z,9.48
2023-04-12T19:34:35.393Z,10.63
2023-04-12T19:37:23.846Z,12.18
2023-04-12T19:40:13.768Z,14.60
2023-04-12T19:43:01.238Z,10.45
2023-04-12T19:45:50.289Z,13.77
2023-04-12T19:48:37.923Z,12.45
2023-04-12T19:51:25.724Z,11.45
2023-04-12T19:54:15.398Z,11.88
2023-04-12T19:57:05.194Z,13.05
2023-04-12T19:59:52.954Z,9.82
2023-04-12T20:02:42.418Z,15.85
2023-04-12T20:05:30.005Z,9.55
2023-04-12T20:08:17.553Z,10.38
2023-04-12T20:11:05.560Z,12.55
2023-04-12T20:13:53.190Z,10.30
2023-04-12T20:16:42.646Z,11.38
2023-04-12T20:19:31.974Z,10.40
2023-04-12T20:22:21.124Z,12.85
2023-04-12T20:25:09.616Z,13.32
2023-04-12T20:27:57.193Z,12.77
2023-04-12T20:30:48.136Z,11.80
2023-04-12T20:33:35.688Z,10.60
2023-04-12T20:36:26.433Z,8.10
2023-04-12T20:39:14.132Z,10.13
2023-04-12T20:42:02.050Z,10.60
2023-04-12T20:44:49.891Z,8.30
2023-04-12T20:47:38.158Z,7.10
2023-04-12T20:50:25.527Z,12.43
2023-04-12T20:53:15.811Z,11.55
2023-04-12T20:56:04.606Z,14.23
2023-04-12T20:58:53.105Z,10.63
2023-04-12T21:01:40.701Z,11.95
2023-04-12T21:04:28.523Z,11.23
2023-04-12T21:07:18.036Z,12.27
2023-04-12T21:10:12.199Z,12.70
2023-04-12T21:13:02.070Z,11.95
2023-04-12T21:15:50.355Z,11.88
2023-04-12T21:18:38.144Z,15.95
2023-04-12T21:21:25.720Z,14.05
2023-04-12T21:24:13.423Z,16.85
2023-04-12T21:27:02.127Z,15.57
2023-04-12T21:29:50.227Z,16.17
2023-04-12T21:32:37.981Z,11.60
2023-04-12T21:35:25.911Z,13.70
2023-04-12T21:38:13.333Z,16.85
2023-04-12T21:41:07.182Z,13.80
2023-04-12T21:43:56.769Z,13.68
2023-04-12T21:46:44.909Z,14.27
2023-04-12T21:49:34.243Z,11.98
2023-04-12T21:52:21.753Z,13.65
2023-04-12T21:55:09.634Z,15.18
2023-04-12T21:57:57.137Z,15.15
2023-04-12T22:00:46.103Z,16.35
2023-04-12T22:03:33.699Z,16.10
2023-04-12T22:06:21.565Z,18.48
2023-04-12T22:09:09.349Z,17.17
2023-04-12T22:11:56.881Z,16.88
2023-04-12T22:14:47.524Z,17.52
2023-04-12T22:17:36.441Z,21.30
2023-04-12T22:20:24.240Z,19.02
2023-04-12T22:23:11.655Z,15.50
2023-04-12T22:25:59.069Z,16.65
2023-04-12T22:28:48.510Z,16.15
2023-04-12T22:31:36.104Z,14.13
2023-04-12T22:34:26.332Z,11.93
2023-04-12T22:37:14.748Z,16.52
2023-04-12T22:40:03.901Z,15.75
2023-04-12T22:42:51.393Z,14.73
2023-04-12T22:45:41.105Z,18.75
2023-04-12T22:48:32.221Z,14.52
2023-04-12T22:51:21.469Z,16.05
2023-04-12T22:54:10.437Z,17.40
2023-04-12T22:56:57.870Z,18.75
2023-04-12T22:59:45.079Z,16.13
2023-04-12T23:02:33.546Z,16.13
2023-04-12T23:05:21.651Z,14.98
2023-04-12T23:08:11.242Z,17.42
2023-04-12T23:11:02.963Z,17.08
2023-04-12T23:13:50.333Z,16.13
2023-04-12T23:16:44.165Z,13.25
2023-04-12T23:19:33.264Z,15.32
2023-04-12T23:22:48.507Z,17.10
2023-04-12T23:25:42.890Z,17.70
2023-04-12T23:28:30.886Z,15.45
2023-04-12T23:31:18.700Z,15.07
2023-04-12T23:34:06.814Z,18.08
2023-04-12T23:36:55.124Z,16.55
2023-04-12T23:39:43.156Z,17.08
2023-04-12T23:42:32.901Z,16.95
2023-04-12T23:45:20.464Z,18.70
2023-04-12T23:48:08.242Z,13.82
2023-04-12T23:50:56.356Z,21.15
2023-04-12T23:53:44.962Z,17.80
2023-04-12T23:56:32.717Z,15.73
2023-04-12T23:59:22.410Z,16.08
